sensor_id;sensor_type;location;lat;lon;timestamp;pressure;altitude;pressure_sealevel;temperature;humidity
10668;BME280;5382;42.136;24.796;2022-10-30T00:00:49;100647.41;;;11.42;97.40
10668;BME280;5382;42.136;24.796;2022-10-30T00:03:16;100647.69;;;11.52;96.02
10668;BME280;5382;42.136;24.796;2022-10-30T00:05:46;100650.72;;;11.46;97.04
10668;BME280;5382;42.136;24.796;2022-10-30T00:08:15;100646.28;;;11.46;93.85
10668;BME280;5382;42.136;24.796;2022-10-30T00:10:45;100649.50;;;11.37;93.73
10668;BME280;5382;42.136;24.796;2022-10-30T00:13:14;100656.69;;;11.35;93.34
10668;BME280;5382;42.136;24.796;2022-10-30T00:15:46;100633.06;;;11.18;93.72
10668;BME280;5382;42.136;24.796;2022-10-30T00:18:14;100652.84;;;10.98;94.46
10668;BME280;5382;42.136;24.796;2022-10-30T00:20:41;100649.53;;;10.80;94.46
10668;BME280;5382;42.136;24.796;2022-10-30T00:23:08;100646.25;;;10.46;95.98
10668;BME280;5382;42.136;24.796;2022-10-30T00:25:35;100640.31;;;10.26;98.27
10668;BME280;5382;42.136;24.796;2022-10-30T00:28:04;100639.63;;;9.93;100.00
10668;BME280;5382;42.136;24.796;2022-10-30T00:30:31;100628.31;;;9.75;100.00
10668;BME280;5382;42.136;24.796;2022-10-30T00:32:58;100640.09;;;9.69;100.00
10668;BME280;5382;42.136;24.796;2022-10-30T00:35:25;100635.31;;;9.76;100.00
10668;BME280;5382;42.136;24.796;2022-10-30T00:37:51;100633.59;;;9.75;100.00
10668;BME280;5382;42.136;24.796;2022-10-30T00:40:19;100581.44;;;9.63;100.00
10668;BME280;5382;42.136;24.796;2022-10-30T00:42:46;100624.72;;;9.92;100.00
10668;BME280;5382;42.136;24.796;2022-10-30T00:45:16;100591.03;;;9.79;100.00
10668;BME280;5382;42.136;24.796;2022-10-30T00:47:45;100617.31;;;10.13;100.00
10668;BME280;5382;42.136;24.796;2022-10-30T00:50:15;100614.16;;;10.06;100.00
10668;BME280;5382;42.136;24.796;2022-10-30T00:52:53;100608.84;;;9.92;100.00
10668;BME280;5382;42.136;24.796;2022-10-30T00:55:26;100617.78;;;10.05;100.00
10668;BME280;5382;42.136;24.796;2022-10-30T00:57:57;100615.34;;;10.16;100.00
10668;BME280;5382;42.136;24.796;2022-10-30T01:00:26;100613.38;;;10.20;100.00
10668;BME280;5382;42.136;24.796;2022-10-30T01:02:55;100613.63;;;10.31;100.00
10668;BME280;5382;42.136;24.796;2022-10-30T01:05:24;100612.22;;;10.40;100.00
10668;BME280;5382;42.136;24.796;2022-10-30T01:07:52;100619.44;;;10.52;100.00
10668;BME280;5382;42.136;24.796;2022-10-30T01:10:20;100616.19;;;10.47;100.00
10668;BME280;5382;42.136;24.796;2022-10-30T01:12:48;100599.78;;;10.56;100.00
10668;BME280;5382;42.136;24.796;2022-10-30T01:15:16;100602.03;;;10.62;100.00
10668;BME280;5382;42.136;24.796;2022-10-30T01:18:12;100603.84;;;10.76;100.00
10668;BME280;5382;42.136;24.796;2022-10-30T01:20:58;100595.16;;;10.60;100.00
10668;BME280;5382;42.136;24.796;2022-10-30T01:23:36;100569.22;;;10.36;100.00
10668;BME280;5382;42.136;24.796;2022-10-30T01:26:12;100561.75;;;10.29;100.00
10668;BME280;5382;42.136;24.796;2022-10-30T01:29:02;100589.56;;;10.50;100.00
10668;BME280;5382;42.136;24.796;2022-10-30T01:31:41;100593.16;;;10.63;100.00
10668;BME280;5382;42.136;24.796;2022-10-30T01:34:18;100593.63;;;10.70;100.00
10668;BME280;5382;42.136;24.796;2022-10-30T01:36:50;100593.56;;;10.72;100.00
10668;BME280;5382;42.136;24.796;2022-10-30T01:39:21;100599.41;;;10.91;100.00
10668;BME280;5382;42.136;24.796;2022-10-30T01:41:49;100591.66;;;10.88;100.00
10668;BME280;5382;42.136;24.796;2022-10-30T01:44:18;100588.94;;;10.89;100.00
10668;BME280;5382;42.136;24.796;2022-10-30T01:47:01;100591.94;;;10.98;100.00
10668;BME280;5382;42.136;24.796;2022-10-30T01:50:13;100584.84;;;10.98;100.00
10668;BME280;5382;42.136;24.796;2022-10-30T01:52:48;100587.31;;;10.87;100.00
10668;BME280;5382;42.136;24.796;2022-10-30T01:55:28;100578.63;;;10.85;100.00
10668;BME280;5382;42.136;24.796;2022-10-30T01:58:05;100574.16;;;10.71;100.00
10668;BME280;5382;42.136;24.796;2022-10-30T02:00:35;100569.81;;;10.70;100.00
10668;BME280;5382;42.136;24.796;2022-10-30T02:03:03;100562.16;;;10.65;100.00
10668;BME280;5382;42.136;24.796;2022-10-30T02:05:35;100568.41;;;10.64;100.00
10668;BME280;5382;42.136;24.796;2022-10-30T02:08:04;100578.22;;;10.62;100.00
10668;BME280;5382;42.136;24.796;2022-10-30T02:10:32;100571.59;;;10.55;100.00
10668;BME280;5382;42.136;24.796;2022-10-30T02:13:00;100553.09;;;10.41;100.00
10668;BME280;5382;42.136;24.796;2022-10-30T02:15:27;100546.88;;;10.26;100.00
10668;BME280;5382;42.136;24.796;2022-10-30T02:17:55;100569.50;;;10.32;100.00
10668;BME280;5382;42.136;24.796;2022-10-30T02:20:23;100537.16;;;10.12;100.00
10668;BME280;5382;42.136;24.796;2022-10-30T02:22:51;100560.94;;;10.12;100.00
10668;BME280;5382;42.136;24.796;2022-10-30T02:25:18;100553.00;;;10.12;100.00
10668;BME280;5382;42.136;24.796;2022-10-30T02:27:45;100558.56;;;10.08;100.00
10668;BME280;5382;42.136;24.796;2022-10-30T02:30:12;100551.47;;;10.08;100.00
10668;BME280;5382;42.136;24.796;2022-10-30T02:32:39;100551.16;;;9.98;100.00
10668;BME280;5382;42.136;24.796;2022-10-30T02:35:07;100553.22;;;9.93;100.00
10668;BME280;5382;42.136;24.796;2022-10-30T02:37:35;100550.69;;;9.92;100.00
10668;BME280;5382;42.136;24.796;2022-10-30T02:40:02;100550.50;;;9.95;100.00
10668;BME280;5382;42.136;24.796;2022-10-30T02:42:30;100550.78;;;9.90;100.00
10668;BME280;5382;42.136;24.796;2022-10-30T02:44:56;100506.97;;;9.56;100.00
10668;BME280;5382;42.136;24.796;2022-10-30T02:47:23;100561.59;;;9.86;100.00
10668;BME280;5382;42.136;24.796;2022-10-30T02:49:50;100558.56;;;9.77;100.00
10668;BME280;5382;42.136;24.796;2022-10-30T02:52:17;100555.59;;;9.83;100.00
10668;BME280;5382;42.136;24.796;2022-10-30T02:54:45;100553.28;;;9.77;100.00
10668;BME280;5382;42.136;24.796;2022-10-30T02:57:12;100558.09;;;9.71;100.00
10668;BME280;5382;42.136;24.796;2022-10-30T02:59:38;100558.22;;;9.68;100.00
10668;BME280;5382;42.136;24.796;2022-10-30T03:02:05;100557.75;;;9.61;100.00
10668;BME280;5382;42.136;24.796;2022-10-30T03:04:32;100561.50;;;9.57;100.00
10668;BME280;5382;42.136;24.796;2022-10-30T03:07:00;100561.84;;;9.51;100.00
10668;BME280;5382;42.136;24.796;2022-10-30T03:09:27;100554.00;;;9.49;100.00
10668;BME280;5382;42.136;24.796;2022-10-30T03:11:55;100521.56;;;9.31;100.00
10668;BME280;5382;42.136;24.796;2022-10-30T03:14:22;100540.13;;;9.46;100.00
10668;BME280;5382;42.136;24.796;2022-10-30T03:16:49;100552.66;;;9.42;100.00
10668;BME280;5382;42.136;24.796;2022-10-30T03:19:17;100548.91;;;9.46;100.00
10668;BME280;5382;42.136;24.796;2022-10-30T03:21:43;100552.31;;;9.48;100.00
10668;BME280;5382;42.136;24.796;2022-10-30T03:24:10;100554.78;;;9.51;100.00
10668;BME280;5382;42.136;24.796;2022-10-30T03:26:37;100552.31;;;9.48;100.00
10668;BME280;5382;42.136;24.796;2022-10-30T03:29:05;100517.59;;;9.24;100.00
10668;BME280;5382;42.136;24.796;2022-10-30T03:31:33;100560.13;;;9.50;100.00
10668;BME280;5382;42.136;24.796;2022-10-30T03:33:59;100561.59;;;9.55;100.00
10668;BME280;5382;42.136;24.796;2022-10-30T03:36:27;100562.53;;;9.54;100.00
10668;BME280;5382;42.136;24.796;2022-10-30T03:38:53;100559.22;;;9.51;100.00
10668;BME280;5382;42.136;24.796;2022-10-30T03:41:21;100562.88;;;9.48;100.00
10668;BME280;5382;42.136;24.796;2022-10-30T03:43:47;100563.31;;;9.41;100.00
10668;BME280;5382;42.136;24.796;2022-10-30T03:46:16;100554.44;;;9.26;100.00
10668;BME280;5382;42.136;24.796;2022-10-30T03:48:42;100567.41;;;9.14;100.00
10668;BME280;5382;42.136;24.796;2022-10-30T03:51:09;100569.34;;;9.11;100.00
10668;BME280;5382;42.136;24.796;2022-10-30T03:53:36;100563.31;;;9.09;100.00
10668;BME280;5382;42.136;24.796;2022-10-30T03:56:04;100565.63;;;8.99;100.00
10668;BME280;5382;42.136;24.796;2022-10-30T03:58:30;100567.13;;;9.03;100.00
10668;BME280;5382;42.136;24.796;2022-10-30T04:01:02;100562.34;;;8.78;100.00
10668;BME280;5382;42.136;24.796;2022-10-30T04:03:30;100573.50;;;8.50;100.00
10668;BME280;5382;42.136;24.796;2022-10-30T04:05:57;100571.78;;;8.49;100.00
10668;BME280;5382;42.136;24.796;2022-10-30T04:08:24;100575.91;;;8.37;100.00
10668;BME280;5382;42.136;24.796;2022-10-30T04:10:51;100571.72;;;8.33;100.00
10668;BME280;5382;42.136;24.796;2022-10-30T04:13:18;100565.53;;;8.17;100.00
10668;BME280;5382;42.136;24.796;2022-10-30T04:15:46;100570.94;;;8.31;100.00
10668;BME280;5382;42.136;24.796;2022-10-30T04:18:13;100563.56;;;8.38;100.00
10668;BME280;5382;42.136;24.796;2022-10-30T04:20:42;100572.56;;;8.34;100.00
10668;BME280;5382;42.136;24.796;2022-10-30T04:23:12;100573.97;;;8.41;100.00
10668;BME280;5382;42.136;24.796;2022-10-30T04:25:40;100575.44;;;8.46;100.00
10668;BME280;5382;42.136;24.796;2022-10-30T04:28:07;100577.22;;;8.46;100.00
10668;BME280;5382;42.136;24.796;2022-10-30T04:30:34;100575.19;;;8.34;100.00
10668;BME280;5382;42.136;24.796;2022-10-30T04:33:02;100583.13;;;8.51;100.00
10668;BME280;5382;42.136;24.796;2022-10-30T04:35:31;100573.38;;;8.69;100.00
10668;BME280;5382;42.136;24.796;2022-10-30T04:38:01;100558.25;;;8.72;100.00
10668;BME280;5382;42.136;24.796;2022-10-30T04:40:29;100567.31;;;9.00;100.00
10668;BME280;5382;42.136;24.796;2022-10-30T04:42:56;100565.63;;;9.15;100.00
10668;BME280;5382;42.136;24.796;2022-10-30T04:45:24;100569.38;;;9.27;100.00
10668;BME280;5382;42.136;24.796;2022-10-30T04:47:51;100546.88;;;9.20;100.00
10668;BME280;5382;42.136;24.796;2022-10-30T04:50:18;100578.81;;;9.47;100.00
10668;BME280;5382;42.136;24.796;2022-10-30T04:52:45;100573.94;;;9.55;100.00
10668;BME280;5382;42.136;24.796;2022-10-30T04:55:13;100582.19;;;9.65;100.00
10668;BME280;5382;42.136;24.796;2022-10-30T04:57:40;100578.34;;;9.70;100.00
10668;BME280;5382;42.136;24.796;2022-10-30T05:00:09;100598.75;;;9.68;100.00
10668;BME280;5382;42.136;24.796;2022-10-30T05:02:36;100581.75;;;9.72;100.00
10668;BME280;5382;42.136;24.796;2022-10-30T05:05:04;100574.22;;;9.80;100.00
10668;BME280;5382;42.136;24.796;2022-10-30T05:07:30;100572.19;;;9.86;100.00
10668;BME280;5382;42.136;24.796;2022-10-30T05:09:57;100581.47;;;9.93;100.00
10668;BME280;5382;42.136;24.796;2022-10-30T05:12:25;100580.25;;;9.98;100.00
10668;BME280;5382;42.136;24.796;2022-10-30T05:14:52;100571.28;;;10.01;100.00
10668;BME280;5382;42.136;24.796;2022-10-30T05:17:20;100557.34;;;9.83;100.00
10668;BME280;5382;42.136;24.796;2022-10-30T05:19:47;100568.28;;;10.07;100.00
10668;BME280;5382;42.136;24.796;2022-10-30T05:22:14;100568.56;;;10.02;100.00
10668;BME280;5382;42.136;24.796;2022-10-30T05:24:41;100572.13;;;10.01;100.00
10668;BME280;5382;42.136;24.796;2022-10-30T05:27:08;100575.47;;;10.05;100.00
10668;BME280;5382;42.136;24.796;2022-10-30T05:29:36;100574.31;;;10.09;100.00
10668;BME280;5382;42.136;24.796;2022-10-30T05:32:03;100581.91;;;10.15;100.00
10668;BME280;5382;42.136;24.796;2022-10-30T05:34:30;100573.03;;;10.16;100.00
10668;BME280;5382;42.136;24.796;2022-10-30T05:36:57;100575.97;;;10.26;100.00
10668;BME280;5382;42.136;24.796;2022-10-30T05:39:23;100581.34;;;10.40;100.00
10668;BME280;5382;42.136;24.796;2022-10-30T05:41:50;100578.22;;;10.48;100.00
10668;BME280;5382;42.136;24.796;2022-10-30T05:44:17;100527.22;;;10.16;100.00
10668;BME280;5382;42.136;24.796;2022-10-30T05:46:45;100588.06;;;10.60;100.00
10668;BME280;5382;42.136;24.796;2022-10-30T05:49:12;100583.72;;;10.59;100.00
10668;BME280;5382;42.136;24.796;2022-10-30T05:51:39;100544.84;;;10.31;100.00
10668;BME280;5382;42.136;24.796;2022-10-30T05:54:05;100601.56;;;10.56;100.00
10668;BME280;5382;42.136;24.796;2022-10-30T05:56:32;100593.53;;;10.57;100.00
10668;BME280;5382;42.136;24.796;2022-10-30T05:58:59;100595.69;;;10.51;99.69
10668;BME280;5382;42.136;24.796;2022-10-30T06:01:26;100597.88;;;10.44;100.00
10668;BME280;5382;42.136;24.796;2022-10-30T06:03:54;100598.25;;;10.22;100.00
10668;BME280;5382;42.136;24.796;2022-10-30T06:06:21;100596.81;;;10.16;100.00
10668;BME280;5382;42.136;24.796;2022-10-30T06:08:48;100589.47;;;10.21;100.00
10668;BME280;5382;42.136;24.796;2022-10-30T06:11:15;100584.00;;;10.24;100.00
10668;BME280;5382;42.136;24.796;2022-10-30T06:13:42;100564.63;;;10.10;100.00
10668;BME280;5382;42.136;24.796;2022-10-30T06:16:08;100592.19;;;10.36;100.00
10668;BME280;5382;42.136;24.796;2022-10-30T06:18:35;100585.56;;;10.29;100.00
10668;BME280;5382;42.136;24.796;2022-10-30T06:21:04;100587.56;;;10.39;100.00
10668;BME280;5382;42.136;24.796;2022-10-30T06:23:31;100575.75;;;10.31;100.00
10668;BME280;5382;42.136;24.796;2022-10-30T06:25:57;100575.28;;;10.38;100.00
10668;BME280;5382;42.136;24.796;2022-10-30T06:28:24;100589.75;;;10.47;100.00
10668;BME280;5382;42.136;24.796;2022-10-30T06:30:52;100587.09;;;10.47;100.00
10668;BME280;5382;42.136;24.796;2022-10-30T06:33:19;100590.97;;;10.56;100.00
10668;BME280;5382;42.136;24.796;2022-10-30T06:35:47;100590.34;;;10.66;100.00
10668;BME280;5382;42.136;24.796;2022-10-30T06:38:15;100581.06;;;10.88;100.00
10668;BME280;5382;42.136;24.796;2022-10-30T06:40:42;100579.34;;;11.01;100.00
10668;BME280;5382;42.136;24.796;2022-10-30T06:43:09;100580.19;;;11.16;100.00
10668;BME280;5382;42.136;24.796;2022-10-30T06:45:35;100563.53;;;11.14;100.00
10668;BME280;5382;42.136;24.796;2022-10-30T06:48:02;100570.22;;;11.34;100.00
10668;BME280;5382;42.136;24.796;2022-10-30T06:50:29;100563.59;;;11.41;100.00
10668;BME280;5382;42.136;24.796;2022-10-30T06:52:56;100566.97;;;11.43;100.00
10668;BME280;5382;42.136;24.796;2022-10-30T06:55:24;100574.31;;;11.52;100.00
10668;BME280;5382;42.136;24.796;2022-10-30T06:57:54;100567.69;;;11.60;100.00
10668;BME280;5382;42.136;24.796;2022-10-30T07:00:21;100567.19;;;11.67;100.00
10668;BME280;5382;42.136;24.796;2022-10-30T07:02:56;100575.63;;;11.87;100.00
10668;BME280;5382;42.136;24.796;2022-10-30T07:05:23;100572.19;;;12.12;98.38
10668;BME280;5382;42.136;24.796;2022-10-30T07:07:50;100576.47;;;12.27;96.85
10668;BME280;5382;42.136;24.796;2022-10-30T07:10:17;100574.56;;;12.42;95.63
10668;BME280;5382;42.136;24.796;2022-10-30T07:12:51;100544.50;;;12.41;93.78
10668;BME280;5382;42.136;24.796;2022-10-30T07:15:18;100553.34;;;12.68;91.62
10668;BME280;5382;42.136;24.796;2022-10-30T07:17:51;100552.66;;;12.90;90.09
10668;BME280;5382;42.136;24.796;2022-10-30T07:20:18;100552.63;;;13.02;88.16
10668;BME280;5382;42.136;24.796;2022-10-30T07:22:45;100560.25;;;13.20;86.35
10668;BME280;5382;42.136;24.796;2022-10-30T07:25:12;100542.78;;;13.28;84.20
10668;BME280;5382;42.136;24.796;2022-10-30T07:27:42;100540.00;;;13.43;84.66
10668;BME280;5382;42.136;24.796;2022-10-30T07:30:12;100536.41;;;13.55;82.61
10668;BME280;5382;42.136;24.796;2022-10-30T07:32:40;100488.59;;;13.42;81.94
10668;BME280;5382;42.136;24.796;2022-10-30T07:35:08;100535.19;;;13.83;81.24
10668;BME280;5382;42.136;24.796;2022-10-30T07:37:35;100531.84;;;13.92;80.66
10668;BME280;5382;42.136;24.796;2022-10-30T07:40:02;100531.50;;;13.97;79.65
10668;BME280;5382;42.136;24.796;2022-10-30T07:42:29;100526.59;;;14.15;79.33
10668;BME280;5382;42.136;24.796;2022-10-30T07:44:56;100534.97;;;14.33;78.50
10668;BME280;5382;42.136;24.796;2022-10-30T07:47:24;100525.78;;;14.48;77.63
10668;BME280;5382;42.136;24.796;2022-10-30T07:49:51;100516.00;;;14.60;76.42
10668;BME280;5382;42.136;24.796;2022-10-30T07:52:17;100523.03;;;14.72;75.93
10668;BME280;5382;42.136;24.796;2022-10-30T07:54:44;100518.94;;;14.79;75.51
10668;BME280;5382;42.136;24.796;2022-10-30T07:57:11;100513.31;;;14.94;73.61
10668;BME280;5382;42.136;24.796;2022-10-30T07:59:38;100511.28;;;14.97;73.43
10668;BME280;5382;42.136;24.796;2022-10-30T08:02:05;100513.06;;;15.08;73.25
10668;BME280;5382;42.136;24.796;2022-10-30T08:04:33;100494.72;;;15.26;73.40
10668;BME280;5382;42.136;24.796;2022-10-30T08:06:59;100500.53;;;15.31;73.37
10668;BME280;5382;42.136;24.796;2022-10-30T08:09:26;100502.09;;;15.34;74.79
10668;BME280;5382;42.136;24.796;2022-10-30T08:11:53;100437.44;;;15.09;75.49
10668;BME280;5382;42.136;24.796;2022-10-30T08:14:20;100482.47;;;15.56;74.97
10668;BME280;5382;42.136;24.796;2022-10-30T08:16:47;100486.56;;;15.71;74.01
10668;BME280;5382;42.136;24.796;2022-10-30T08:19:13;100479.09;;;15.86;73.70
10668;BME280;5382;42.136;24.796;2022-10-30T08:21:41;100480.84;;;15.97;73.03
10668;BME280;5382;42.136;24.796;2022-10-30T08:24:08;100468.22;;;15.99;72.81
10668;BME280;5382;42.136;24.796;2022-10-30T08:26:35;100475.03;;;16.12;72.71
10668;BME280;5382;42.136;24.796;2022-10-30T08:29:02;100475.66;;;16.16;72.18
10668;BME280;5382;42.136;24.796;2022-10-30T08:31:29;100471.03;;;16.28;71.75
10668;BME280;5382;42.136;24.796;2022-10-30T08:33:56;100464.81;;;16.48;70.70
10668;BME280;5382;42.136;24.796;2022-10-30T08:36:22;100448.56;;;16.61;70.62
10668;BME280;5382;42.136;24.796;2022-10-30T08:38:51;100465.97;;;16.96;67.54
10668;BME280;5382;42.136;24.796;2022-10-30T08:41:17;100458.28;;;17.12;66.80
10668;BME280;5382;42.136;24.796;2022-10-30T08:43:44;100456.03;;;17.37;65.25
10668;BME280;5382;42.136;24.796;2022-10-30T08:46:11;100467.03;;;17.53;63.56
10668;BME280;5382;42.136;24.796;2022-10-30T08:48:38;100455.19;;;17.56;63.05
10668;BME280;5382;42.136;24.796;2022-10-30T08:51:05;100432.66;;;17.49;62.40
10668;BME280;5382;42.136;24.796;2022-10-30T08:53:32;100437.25;;;17.76;61.60
10668;BME280;5382;42.136;24.796;2022-10-30T08:56:00;100452.34;;;17.96;61.08
10668;BME280;5382;42.136;24.796;2022-10-30T08:58:27;100410.38;;;17.87;60.72
10668;BME280;5382;42.136;24.796;2022-10-30T09:00:53;100436.63;;;18.21;60.03
10668;BME280;5382;42.136;24.796;2022-10-30T09:03:20;100432.88;;;18.41;59.02
10668;BME280;5382;42.136;24.796;2022-10-30T09:05:47;100434.09;;;18.57;58.21
10668;BME280;5382;42.136;24.796;2022-10-30T09:08:14;100414.75;;;18.53;57.98
10668;BME280;5382;42.136;24.796;2022-10-30T09:10:41;100423.00;;;18.69;57.63
10668;BME280;5382;42.136;24.796;2022-10-30T09:13:09;100428.97;;;18.91;57.21
10668;BME280;5382;42.136;24.796;2022-10-30T09:15:36;100426.63;;;19.06;55.92
10668;BME280;5382;42.136;24.796;2022-10-30T09:18:03;100425.63;;;19.25;55.39
10668;BME280;5382;42.136;24.796;2022-10-30T09:20:30;100401.72;;;19.31;54.79
10668;BME280;5382;42.136;24.796;2022-10-30T09:22:57;100369.50;;;19.31;54.05
10668;BME280;5382;42.136;24.796;2022-10-30T09:25:24;100405.63;;;19.63;53.71
10668;BME280;5382;42.136;24.796;2022-10-30T09:27:51;100401.47;;;19.87;53.52
10668;BME280;5382;42.136;24.796;2022-10-30T09:30:19;100379.88;;;19.96;54.21
10668;BME280;5382;42.136;24.796;2022-10-30T09:32:53;100389.41;;;20.25;50.72
10668;BME280;5382;42.136;24.796;2022-10-30T09:35:19;100389.06;;;20.20;49.89
10668;BME280;5382;42.136;24.796;2022-10-30T09:37:46;100376.00;;;20.33;50.21
10668;BME280;5382;42.136;24.796;2022-10-30T09:40:20;100369.16;;;20.47;50.25
10668;BME280;5382;42.136;24.796;2022-10-30T09:42:50;100371.47;;;20.68;50.50
10668;BME280;5382;42.136;24.796;2022-10-30T09:51:07;100344.25;;;20.96;49.22
10668;BME280;5382;42.136;24.796;2022-10-30T09:53:48;100349.50;;;21.13;48.60
10668;BME280;5382;42.136;24.796;2022-10-30T09:56:23;100304.06;;;20.69;48.76
10668;BME280;5382;42.136;24.796;2022-10-30T09:59:00;100352.03;;;21.15;48.81
10668;BME280;5382;42.136;24.796;2022-10-30T10:01:38;100326.09;;;21.14;47.80
10668;BME280;5382;42.136;24.796;2022-10-30T10:04:18;100353.72;;;21.41;47.32
10668;BME280;5382;42.136;24.796;2022-10-30T10:06:51;100352.03;;;21.56;45.95
10668;BME280;5382;42.136;24.796;2022-10-30T10:09:22;100335.00;;;21.72;45.43
10668;BME280;5382;42.136;24.796;2022-10-30T10:11:54;100310.56;;;21.73;46.18
10668;BME280;5382;42.136;24.796;2022-10-30T10:14:24;100338.09;;;22.08;45.04
10668;BME280;5382;42.136;24.796;2022-10-30T10:16:56;100330.78;;;22.25;43.73
10668;BME280;5382;42.136;24.796;2022-10-30T10:19:29;100329.88;;;22.41;42.58
10668;BME280;5382;42.136;24.796;2022-10-30T10:21:58;100323.25;;;22.52;43.29
10668;BME280;5382;42.136;24.796;2022-10-30T10:24:28;100317.63;;;22.61;43.12
10668;BME280;5382;42.136;24.796;2022-10-30T10:27:00;100300.19;;;22.72;42.20
10668;BME280;5382;42.136;24.796;2022-10-30T10:29:41;100307.25;;;23.19;40.56
10668;BME280;5382;42.136;24.796;2022-10-30T10:32:31;100296.31;;;24.25;38.26
10668;BME280;5382;42.136;24.796;2022-10-30T10:35:20;100293.63;;;25.54;36.77
10668;BME280;5382;42.136;24.796;2022-10-30T10:37:58;100281.53;;;25.84;35.33
10668;BME280;5382;42.136;24.796;2022-10-30T10:40:42;100265.13;;;26.54;33.57
10668;BME280;5382;42.136;24.796;2022-10-30T10:43:20;100270.06;;;27.77;32.65
10668;BME280;5382;42.136;24.796;2022-10-30T10:45:55;100265.63;;;28.79;31.38
10668;BME280;5382;42.136;24.796;2022-10-30T10:51:16;100242.97;;;29.10;29.23
10668;BME280;5382;42.136;24.796;2022-10-30T10:53:47;100250.06;;;29.55;27.77
10668;BME280;5382;42.136;24.796;2022-10-30T10:56:20;100245.09;;;29.89;27.17
10668;BME280;5382;42.136;24.796;2022-10-30T10:58:54;100239.22;;;30.52;26.76
10668;BME280;5382;42.136;24.796;2022-10-30T11:01:27;100238.44;;;30.75;26.57
10668;BME280;5382;42.136;24.796;2022-10-30T11:04:02;100234.03;;;30.74;26.59
10668;BME280;5382;42.136;24.796;2022-10-30T11:06:31;100225.34;;;30.24;26.58
10668;BME280;5382;42.136;24.796;2022-10-30T11:09:11;100216.50;;;30.40;26.14
10668;BME280;5382;42.136;24.796;2022-10-30T11:11:41;100219.69;;;31.26;25.07
10668;BME280;5382;42.136;24.796;2022-10-30T11:14:12;100221.56;;;31.72;24.81
10668;BME280;5382;42.136;24.796;2022-10-30T11:16:50;100171.41;;;31.96;23.29
10668;BME280;5382;42.136;24.796;2022-10-30T11:19:21;100202.84;;;33.40;22.78
10668;BME280;5382;42.136;24.796;2022-10-30T11:21:52;100200.69;;;34.35;22.63
10668;BME280;5382;42.136;24.796;2022-10-30T11:24:28;100180.22;;;34.80;21.66
10668;BME280;5382;42.136;24.796;2022-10-30T11:26:57;100192.59;;;35.20;21.73
10668;BME280;5382;42.136;24.796;2022-10-30T11:29:26;100192.13;;;35.33;21.35
10668;BME280;5382;42.136;24.796;2022-10-30T11:32:00;100153.19;;;34.07;21.07
10668;BME280;5382;42.136;24.796;2022-10-30T11:34:32;100185.88;;;34.63;20.40
10668;BME280;5382;42.136;24.796;2022-10-30T11:37:00;100183.06;;;34.90;20.43
10668;BME280;5382;42.136;24.796;2022-10-30T11:39:29;100163.97;;;35.74;20.25
10668;BME280;5382;42.136;24.796;2022-10-30T11:41:59;100158.84;;;36.54;19.36
10668;BME280;5382;42.136;24.796;2022-10-30T11:44:30;100161.59;;;37.05;19.52
10668;BME280;5382;42.136;24.796;2022-10-30T11:46:58;100157.78;;;36.55;18.42
10668;BME280;5382;42.136;24.796;2022-10-30T11:49:31;100103.72;;;36.08;18.45
10668;BME280;5382;42.136;24.796;2022-10-30T11:52:00;100157.72;;;37.06;17.85
10668;BME280;5382;42.136;24.796;2022-10-30T11:54:27;100146.00;;;37.40;18.72
10668;BME280;5382;42.136;24.796;2022-10-30T11:56:55;100115.75;;;37.15;17.88
10668;BME280;5382;42.136;24.796;2022-10-30T11:59:23;100132.03;;;35.88;18.52
10668;BME280;5382;42.136;24.796;2022-10-30T12:01:58;100146.16;;;35.34;19.35
10668;BME280;5382;42.136;24.796;2022-10-30T12:04:27;100140.31;;;35.88;18.71
10668;BME280;5382;42.136;24.796;2022-10-30T12:07:08;100128.78;;;35.96;18.62
10668;BME280;5382;42.136;24.796;2022-10-30T12:09:44;100129.09;;;36.31;18.65
10668;BME280;5382;42.136;24.796;2022-10-30T12:12:14;100097.84;;;36.97;18.60
10668;BME280;5382;42.136;24.796;2022-10-30T12:14:46;100105.44;;;37.90;17.26
10668;BME280;5382;42.136;24.796;2022-10-30T12:17:14;100125.28;;;37.97;17.01
10668;BME280;5382;42.136;24.796;2022-10-30T12:19:46;100119.34;;;38.19;17.32
10668;BME280;5382;42.136;24.796;2022-10-30T12:22:27;100104.81;;;38.04;17.09
10668;BME280;5382;42.136;24.796;2022-10-30T12:24:55;100080.81;;;37.94;16.24
10668;BME280;5382;42.136;24.796;2022-10-30T12:27:23;100112.81;;;38.69;16.22
10668;BME280;5382;42.136;24.796;2022-10-30T12:30:00;100112.94;;;39.36;16.22
10668;BME280;5382;42.136;24.796;2022-10-30T12:32:35;100113.31;;;39.48;15.15
10668;BME280;5382;42.136;24.796;2022-10-30T12:35:09;100099.88;;;38.93;16.02
10668;BME280;5382;42.136;24.796;2022-10-30T12:37:43;100108.88;;;36.97;17.18
10668;BME280;5382;42.136;24.796;2022-10-30T12:40:13;100095.34;;;37.16;16.70
10668;BME280;5382;42.136;24.796;2022-10-30T12:42:45;100094.69;;;37.84;15.84
10668;BME280;5382;42.136;24.796;2022-10-30T12:45:19;100104.41;;;38.79;15.88
10668;BME280;5382;42.136;24.796;2022-10-30T12:47:50;100067.94;;;39.44;15.58
10668;BME280;5382;42.136;24.796;2022-10-30T12:50:23;100091.78;;;39.83;15.53
10668;BME280;5382;42.136;24.796;2022-10-30T12:52:58;100083.50;;;40.16;17.30
10668;BME280;5382;42.136;24.796;2022-10-30T12:55:30;100086.75;;;40.37;15.51
10668;BME280;5382;42.136;24.796;2022-10-30T12:58:04;100083.91;;;40.55;15.56
10668;BME280;5382;42.136;24.796;2022-10-30T13:00:39;100086.63;;;40.88;14.94
10668;BME280;5382;42.136;24.796;2022-10-30T13:03:21;100084.78;;;40.84;14.74
10668;BME280;5382;42.136;24.796;2022-10-30T13:05:53;100070.81;;;41.03;14.58
10668;BME280;5382;42.136;24.796;2022-10-30T13:08:26;100081.16;;;41.38;14.11